Sv.knyaz Vladimir — UBKI2 — position and weather

sailwx.info

Track history (hours):
 
Tides and Currents Weather Stations Pressure Air Temp Water Temp Dewpoint Dewpoint Depression Visibility Wind Speed Wind Dir Waves Ship Positions

Sv.knyaz Vladimir

Last reported at 2018-Apr-24 13:56 UTC. Time now 2018-Apr-24 21:00 UTC.
Position N 45°48' E 036°57'.

Length 128 m; draft 3.1 m.

Type: Cargo ship. MMSI: 273350360.

Date/timePositionNaut miles runAvg speedWind from/ knotsBaromVisibWave heightAir tempDewpointWater temp
2018-Apr-24 13:56N 45°48' E 036°57'4 9.2
2018-Apr-24 13:30N 45°44' E 036°54'9 9.3
2018-Apr-24 12:35N 45°37' E 036°49'110.5
2018-Apr-24 12:30N 45°36' E 036°48'5 9.4
2018-Apr-24 11:59N 45°32' E 036°45'5 9.5
2018-Apr-24 11:30N 45°28' E 036°42'5 9.3
2018-Apr-24 11:00N 45°23' E 036°40'4 8.8
2018-Apr-24 10:30N 45°20' E 036°36'5 9.4
2018-Apr-24 10:00N 45°18' E 036°30'4 7.1
2018-Apr-24 09:29N 45°15' E 036°29'4 8.4
2018-Apr-24 09:00N 45°11' E 036°29'5 0.2
2018-Apr-23 10:22N 45°07' E 036°34'0 0.5
2018-Apr-23 09:59N 45°07' E 036°34'2 3.4
2018-Apr-23 09:28N 45°08' E 036°32'4 5.9
2018-Apr-23 08:45N 45°11' E 036°28'2 8.0
2018-Apr-23 08:30N 45°13' E 036°28'4 7.8
2018-Apr-23 08:00N 45°17' E 036°29'3 6.7
2018-Apr-23 07:30N 45°19' E 036°32'4 7.1
2018-Apr-23 07:00N 45°21' E 036°37'4 7.2
2018-Apr-23 06:30N 45°23' E 036°40'4 8.7
2018-Apr-23 06:00N 45°28' E 036°42'4 8.6
2018-Apr-23 05:30N 45°31' E 036°45'  
2018-Apr-16 23:03N 45°32' E 036°47'0 9.7
2018-Apr-16 23:00N 45°32' E 036°46'5 9.6
2018-Apr-16 22:30N 45°28' E 036°42'5 9.8
2018-Apr-16 22:00N 45°23' E 036°41'5 9.7
2018-Apr-16 21:30N 45°20' E 036°35'5 9.5
2018-Apr-16 20:56N 45°17' E 036°29'6 9.8
2018-Apr-16 20:17N 45°11' E 036°30'5 0.9
2018-Apr-16 14:53N 45°06' E 036°33'0 0.1
2018-Apr-16 14:25N 45°06' E 036°33'0 0.5
2018-Apr-16 13:57N 45°06' E 036°33'2 5.4
2018-Apr-16 13:30N 45°08' E 036°35'0 0.0
2018-Apr-16 11:36N 45°08' E 036°35'0 0.0
2018-Apr-16 11:27N 45°08' E 036°35'0 0.0
2018-Apr-16 10:51N 45°08' E 036°35'0 0.0
2018-Apr-16 10:21N 45°08' E 036°35'0 0.0
2018-Apr-16 10:00N 45°08' E 036°35'0 0.0
2018-Apr-16 09:27N 45°08' E 036°35'0 0.0
2018-Apr-16 09:00N 45°08' E 036°35'2 0.1
2018-Apr-15 16:35N 45°08' E 036°32'0 0.0
2018-Apr-15 16:20N 45°08' E 036°32'0 0.0
2018-Apr-15 13:23N 45°08' E 036°32'0 0.0
2018-Apr-15 12:56N 45°08' E 036°32'0 0.0
2018-Apr-15 12:29N 45°08' E 036°32'0 0.0
2018-Apr-15 11:59N 45°08' E 036°32'0 0.0
2018-Apr-15 11:23N 45°08' E 036°32'0 0.0
2018-Apr-15 10:38N 45°08' E 036°32'0 0.0
2018-Apr-15 09:08N 45°08' E 036°32'0 0.0
2018-Apr-15 05:50N 45°08' E 036°32'2 5.6
2018-Apr-15 05:29N 45°09' E 036°30'4 8.2
2018-Apr-15 05:00N 45°13' E 036°28'4 8.9
2018-Apr-15 04:30N 45°17' E 036°29'4 8.7
2018-Apr-15 04:00N 45°20' E 036°34'5 9.0
2018-Apr-15 03:30N 45°22' E 036°39'4 8.8
2018-Apr-15 03:00N 45°26' E 036°41'2 0.7
2018-Apr-14 23:49N 45°28' E 036°40'0 0.0
2018-Apr-14 23:25N 45°28' E 036°40'0 0.3
2018-Apr-14 23:00N 45°28' E 036°40'3 5.6
2018-Apr-14 22:27N 45°30' E 036°43'4 8.8
2018-Apr-14 22:00N 45°34' E 036°46'  
Track history (hours):
 
Tides and Currents Weather Stations Pressure Air Temp Water Temp Dewpoint Dewpoint Depression Visibility Wind Speed Wind Dir Waves Ship Positions

Sv.knyaz Vladimir

Last reported at 2018-Apr-24 13:56 UTC. Time now 2018-Apr-24 21:00 UTC.
Position N 45°48' E 036°57'.

Length 128 m; draft 3.1 m.

Type: Cargo ship. MMSI: 273350360.

Date/timePositionNaut miles runAvg speedWind from/ knotsBaromVisibWave heightAir tempDewpointWater temp
2018-Apr-24 13:56N 45°48' E 036°57'4 9.2
2018-Apr-24 13:30N 45°44' E 036°54'9 9.3
2018-Apr-24 12:35N 45°37' E 036°49'110.5
2018-Apr-24 12:30N 45°36' E 036°48'5 9.4
2018-Apr-24 11:59N 45°32' E 036°45'5 9.5
2018-Apr-24 11:30N 45°28' E 036°42'5 9.3
2018-Apr-24 11:00N 45°23' E 036°40'4 8.8
2018-Apr-24 10:30N 45°20' E 036°36'5 9.4
2018-Apr-24 10:00N 45°18' E 036°30'4 7.1
2018-Apr-24 09:29N 45°15' E 036°29'4 8.4
2018-Apr-24 09:00N 45°11' E 036°29'5 0.2
2018-Apr-23 10:22N 45°07' E 036°34'0 0.5
2018-Apr-23 09:59N 45°07' E 036°34'2 3.4
2018-Apr-23 09:28N 45°08' E 036°32'4 5.9
2018-Apr-23 08:45N 45°11' E 036°28'2 8.0
2018-Apr-23 08:30N 45°13' E 036°28'4 7.8
2018-Apr-23 08:00N 45°17' E 036°29'3 6.7
2018-Apr-23 07:30N 45°19' E 036°32'4 7.1
2018-Apr-23 07:00N 45°21' E 036°37'4 7.2
2018-Apr-23 06:30N 45°23' E 036°40'4 8.7
2018-Apr-23 06:00N 45°28' E 036°42'4 8.6
2018-Apr-23 05:30N 45°31' E 036°45'  
2018-Apr-16 23:03N 45°32' E 036°47'0 9.7
2018-Apr-16 23:00N 45°32' E 036°46'5 9.6
2018-Apr-16 22:30N 45°28' E 036°42'5 9.8
2018-Apr-16 22:00N 45°23' E 036°41'5 9.7
2018-Apr-16 21:30N 45°20' E 036°35'5 9.5
2018-Apr-16 20:56N 45°17' E 036°29'6 9.8
2018-Apr-16 20:17N 45°11' E 036°30'5 0.9
2018-Apr-16 14:53N 45°06' E 036°33'0 0.1
2018-Apr-16 14:25N 45°06' E 036°33'0 0.5
2018-Apr-16 13:57N 45°06' E 036°33'2 5.4
2018-Apr-16 13:30N 45°08' E 036°35'0 0.0
2018-Apr-16 11:36N 45°08' E 036°35'0 0.0
2018-Apr-16 11:27N 45°08' E 036°35'0 0.0
2018-Apr-16 10:51N 45°08' E 036°35'0 0.0
2018-Apr-16 10:21N 45°08' E 036°35'0 0.0
2018-Apr-16 10:00N 45°08' E 036°35'0 0.0
2018-Apr-16 09:27N 45°08' E 036°35'0 0.0
2018-Apr-16 09:00N 45°08' E 036°35'2 0.1
2018-Apr-15 16:35N 45°08' E 036°32'0 0.0
2018-Apr-15 16:20N 45°08' E 036°32'0 0.0
2018-Apr-15 13:23N 45°08' E 036°32'0 0.0
2018-Apr-15 12:56N 45°08' E 036°32'0 0.0
2018-Apr-15 12:29N 45°08' E 036°32'0 0.0
2018-Apr-15 11:59N 45°08' E 036°32'0 0.0
2018-Apr-15 11:23N 45°08' E 036°32'0 0.0
2018-Apr-15 10:38N 45°08' E 036°32'0 0.0
2018-Apr-15 09:08N 45°08' E 036°32'0 0.0
2018-Apr-15 05:50N 45°08' E 036°32'2 5.6
2018-Apr-15 05:29N 45°09' E 036°30'4 8.2
2018-Apr-15 05:00N 45°13' E 036°28'4 8.9
2018-Apr-15 04:30N 45°17' E 036°29'4 8.7
2018-Apr-15 04:00N 45°20' E 036°34'5 9.0
2018-Apr-15 03:30N 45°22' E 036°39'4 8.8
2018-Apr-15 03:00N 45°26' E 036°41'2 0.7
2018-Apr-14 23:49N 45°28' E 036°40'0 0.0
2018-Apr-14 23:25N 45°28' E 036°40'0 0.3
2018-Apr-14 23:00N 45°28' E 036°40'3 5.6
2018-Apr-14 22:27N 45°30' E 036°43'4 8.8
2018-Apr-14 22:00N 45°34' E 036°46'  

Dump ship's entire track history